Time;durP1;ratioP1;P1;durP2;ratioP2;P2;SDS_P1;SDS_P2;PMS_P1;PMS_P2;Temp;Humidity;BMP_temperature;BMP_pressure;BME280_temperature;BME280_humidity;BME280_pressure;Samples;Min_cycle;Max_cycle;Signal;HPM_P1;HPM_P2
2023/12/18 00:00:28;;;;;;;;;31.75;29.00;;;;;10.42;100.00;102996.28;2088054;28;44961;-54
2023/12/18 00:01:29;;;;;;;;;28.60;28.20;;;;;10.40;100.00;102995.34;2088625;28;44989;-53
2023/12/18 00:02:29;;;;;;;;;34.00;29.75;;;;;10.43;100.00;102994.53;2087662;28;44857;-55
2023/12/18 00:03:30;;;;;;;;;30.00;27.00;;;;;10.43;100.00;102997.19;2087735;28;44907;-51
2023/12/18 00:04:31;;;;;;;;;28.50;27.50;;;;;10.43;100.00;102991.88;2086527;28;44885;-57
2023/12/18 00:05:31;;;;;;;;;29.50;27.25;;;;;10.41;100.00;102994.47;2076850;28;45064;-53
2023/12/18 00:06:32;;;;;;;;;33.75;30.50;;;;;10.38;100.00;102989.13;2079019;28;44994;-52
2023/12/18 00:07:33;;;;;;;;;30.50;29.00;;;;;10.40;100.00;102992.69;2084012;28;45004;-55
2023/12/18 00:08:33;;;;;;;;;24.25;23.50;;;;;10.40;100.00;102983.84;2085715;28;44916;-55
2023/12/18 00:09:34;;;;;;;;;28.50;25.50;;;;;10.35;100.00;102985.53;2087106;28;44962;-54
2023/12/18 00:10:35;;;;;;;;;29.75;29.25;;;;;10.34;100.00;102983.75;2088156;28;44997;-54
2023/12/18 00:11:35;;;;;;;;;30.75;27.25;;;;;10.31;100.00;102980.19;2088283;28;44954;-56
2023/12/18 00:12:36;;;;;;;;;32.50;31.25;;;;;10.32;100.00;102987.28;2088403;28;44922;-54
2023/12/18 00:13:37;;;;;;;;;31.40;30.40;;;;;10.36;100.00;102987.31;2087015;28;45003;-55
2023/12/18 00:14:38;;;;;;;;;23.00;20.25;;;;;10.30;100.00;102988.13;2088184;28;44957;-55
2023/12/18 00:15:39;;;;;;;;;29.50;27.75;;;;;10.29;100.00;102986.31;2084457;28;44763;-55
2023/12/18 00:16:39;;;;;;;;;34.50;29.00;;;;;10.28;100.00;102985.44;2087835;28;44945;-56
2023/12/18 00:17:40;;;;;;;;;31.25;28.25;;;;;10.30;100.00;102985.47;2088284;28;44830;-55
2023/12/18 00:18:41;;;;;;;;;31.25;26.25;;;;;10.31;100.00;102981.97;2084450;28;44834;-54
2023/12/18 00:19:42;;;;;;;;;34.00;29.50;;;;;10.32;100.00;102978.44;2084110;28;44975;-53
2023/12/18 00:20:43;;;;;;;;;30.00;27.00;;;;;10.32;100.00;102971.34;2081122;28;44904;-54
2023/12/18 00:21:43;;;;;;;;;23.25;20.75;;;;;10.33;100.00;102974.91;2088613;28;44959;-53
2023/12/18 00:22:44;;;;;;;;;27.50;25.25;;;;;10.33;100.00;102977.56;2088425;28;44934;-53
2023/12/18 00:23:45;;;;;;;;;29.50;26.50;;;;;10.33;100.00;102969.59;2087551;28;44924;-54
2023/12/18 00:24:46;;;;;;;;;30.25;27.00;;;;;10.30;100.00;102978.41;2087918;28;44985;-53
2023/12/18 00:25:46;;;;;;;;;28.75;27.25;;;;;10.31;100.00;102972.22;2088235;28;45845;-54
2023/12/18 00:26:47;;;;;;;;;26.00;25.00;;;;;10.30;100.00;102969.56;2087629;28;45142;-53
2023/12/18 00:27:48;;;;;;;;;24.50;23.00;;;;;10.28;100.00;102964.19;2087711;28;45032;-53
2023/12/18 00:28:48;;;;;;;;;29.25;22.75;;;;;10.29;100.00;102970.41;2087807;28;44914;-54
2023/12/18 00:29:49;;;;;;;;;27.75;26.50;;;;;10.26;100.00;102965.94;2086574;28;44838;-54
2023/12/18 00:30:49;;;;;;;;;30.75;26.25;;;;;10.23;100.00;102968.56;2084748;28;45261;-55
2023/12/18 00:31:50;;;;;;;;;27.25;24.50;;;;;10.19;100.00;102969.34;2086116;28;44830;-56
2023/12/18 00:32:50;;;;;;;;;22.00;20.75;;;;;10.17;100.00;102973.75;2084012;28;44954;-54
2023/12/18 00:33:51;;;;;;;;;31.00;27.00;;;;;10.15;100.00;102971.91;2088292;28;44903;-56
2023/12/18 00:34:51;;;;;;;;;26.50;26.25;;;;;10.12;100.00;102972.75;2088154;28;45011;-57
2023/12/18 00:35:52;;;;;;;;;28.50;24.50;;;;;10.10;100.00;102971.84;2088040;28;44965;-53
2023/12/18 00:36:53;;;;;;;;;27.50;24.75;;;;;10.10;100.00;102973.59;2088243;28;45006;-53
2023/12/18 00:37:54;;;;;;;;;27.25;25.50;;;;;10.10;100.00;102981.56;2087727;28;44933;-50
2023/12/18 00:38:54;;;;;;;;;24.80;24.00;;;;;10.10;100.00;102984.22;2088336;28;44979;-54
2023/12/18 00:39:55;;;;;;;;;24.75;22.75;;;;;10.10;100.00;102978.91;2084257;28;44997;-53
2023/12/18 00:40:56;;;;;;;;;28.50;26.00;;;;;10.09;100.00;102972.72;2086972;28;44991;-55
2023/12/18 00:41:57;;;;;;;;;25.20;25.20;;;;;10.10;100.00;102971.84;2080791;28;45139;-55
2023/12/18 00:42:58;;;;;;;;;19.50;18.25;;;;;10.10;100.00;102982.47;2087962;28;45138;-53
2023/12/18 00:43:58;;;;;;;;;22.50;22.50;;;;;10.12;100.00;102983.38;2088038;28;44926;-52
2023/12/18 00:44:59;;;;;;;;;26.75;26.50;;;;;10.13;100.00;102987.81;2087867;28;45060;-56
2023/12/18 00:46:03;;;;;;;;;24.25;21.75;;;;;10.16;100.00;102985.19;2087430;28;44827;-51
2023/12/18 00:47:04;;;;;;;;;27.60;25.40;;;;;10.19;100.00;102981.72;2087424;28;44990;-55
2023/12/18 00:48:05;;;;;;;;;23.20;21.00;;;;;10.17;100.00;102976.41;2087604;28;44946;-54
2023/12/18 00:49:06;;;;;;;;;24.00;22.80;;;;;10.18;100.00;102978.19;2068865;28;44895;-56
2023/12/18 00:50:09;;;;;;;;;23.50;22.25;;;;;10.18;100.00;102967.56;2067859;28;44970;-57
2023/12/18 00:51:11;;;;;;;;;26.80;22.40;;;;;10.17;100.00;102965.78;2087330;28;44945;-54
2023/12/18 00:52:12;;;;;;;;;24.80;23.60;;;;;10.17;100.00;102964.91;2088170;28;44968;-53
2023/12/18 00:53:16;;;;;;;;;24.75;23.75;;;;;10.17;100.00;102971.09;2088167;28;44876;-54
2023/12/18 00:54:16;;;;;;;;;22.80;22.40;;;;;10.16;100.00;102958.66;2088518;28;45183;-53
2023/12/18 00:55:17;;;;;;;;;25.75;21.00;;;;;10.14;100.00;102965.72;2086341;28;44880;-54
2023/12/18 00:56:19;;;;;;;;;25.50;24.25;;;;;10.12;100.00;102964.81;2085276;28;44896;-53
2023/12/18 00:57:19;;;;;;;;;18.60;17.80;;;;;10.11;100.00;102962.13;2090386;28;44925;-55
2023/12/18 00:58:20;;;;;;;;;27.50;24.50;;;;;10.13;100.00;102965.69;2087176;28;45012;-50
2023/12/18 00:59:20;;;;;;;;;24.00;21.25;;;;;10.12;100.00;102954.19;2070117;28;45558;-54
2023/12/18 01:00:21;;;;;;;;;31.25;29.00;;;;;10.12;100.00;102951.53;2069637;28;44924;-55
2023/12/18 01:01:22;;;;;;;;;25.50;23.75;;;;;10.13;100.00;102947.13;2086827;28;45127;-53
2023/12/18 01:02:22;;;;;;;;;24.25;22.75;;;;;10.13;100.00;102941.81;2087574;28;44779;-56
2023/12/18 01:03:23;;;;;;;;;24.25;22.75;;;;;10.13;100.00;102948.00;2087122;28;44970;-56
2023/12/18 01:04:24;;;;;;;;;23.75;23.50;;;;;10.16;100.00;102944.50;2086400;28;45012;-50
2023/12/18 01:05:24;;;;;;;;;22.75;21.75;;;;;10.14;100.00;102940.94;2085712;28;45073;-55
2023/12/18 01:06:25;;;;;;;;;30.25;27.75;;;;;10.15;100.00;102942.72;2087942;28;45019;-54
2023/12/18 01:07:26;;;;;;;;;29.00;22.75;;;;;10.15;100.00;102946.28;2087925;28;45024;-54
2023/12/18 01:08:26;;;;;;;;;25.75;21.25;;;;;10.13;100.00;102944.47;2086958;28;44895;-53
2023/12/18 01:09:27;;;;;;;;;29.50;28.25;;;;;10.11;100.00;102938.25;2087873;28;45024;-55
2023/12/18 01:10:28;;;;;;;;;23.75;21.75;;;;;10.13;100.00;102941.81;2087616;28;45209;-52
2023/12/18 01:11:29;;;;;;;;;27.80;23.60;;;;;10.11;100.00;102935.59;2086964;28;44858;-53
2023/12/18 01:12:30;;;;;;;;;22.00;17.00;;;;;10.16;100.00;102947.16;2085438;28;44861;-55
2023/12/18 01:13:30;;;;;;;;;25.75;25.25;;;;;10.15;100.00;102930.34;2087152;28;44940;-54
2023/12/18 01:14:31;;;;;;;;;27.00;26.25;;;;;10.17;100.00;102931.28;2087740;28;45050;-54
2023/12/18 01:15:31;;;;;;;;;26.75;23.00;;;;;10.20;100.00;102930.44;2087857;28;44864;-52
2023/12/18 01:16:32;;;;;;;;;24.25;24.00;;;;;10.20;100.00;102933.09;2086659;28;44894;-53
2023/12/18 01:17:33;;;;;;;;;28.50;24.25;;;;;10.19;100.00;102926.91;2085096;28;45068;-54
2023/12/18 01:18:33;;;;;;;;;29.00;23.50;;;;;10.20;100.00;102933.97;2084066;28;44834;-54
2023/12/18 01:19:34;;;;;;;;;30.25;29.00;;;;;10.19;100.00;102928.66;2085446;28;44855;-54
2023/12/18 01:20:35;;;;;;;;;23.25;23.25;;;;;10.18;100.00;102924.22;2084074;28;45183;-54
2023/12/18 01:21:36;;;;;;;;;28.50;24.00;;;;;10.19;100.00;102928.66;2087060;28;44969;-53
2023/12/18 01:22:37;;;;;;;;;26.75;22.00;;;;;10.18;100.00;102924.22;2085673;28;45146;-51
2023/12/18 01:23:37;;;;;;;;;26.80;22.60;;;;;10.18;100.00;102925.13;2088427;28;44850;-54
2023/12/18 01:24:38;;;;;;;;;22.25;22.25;;;;;10.18;100.00;102921.56;2087554;28;44983;-56
2023/12/18 01:25:39;;;;;;;;;22.75;22.75;;;;;10.19;100.00;102924.25;2084930;28;45051;-55
2023/12/18 01:26:39;;;;;;;;;26.75;22.00;;;;;10.22;100.00;102928.72;2092013;28;44880;-53
2023/12/18 01:27:41;;;;;;;;;24.25;22.50;;;;;10.24;100.00;102929.66;2086125;28;44961;-54
2023/12/18 01:28:43;;;;;;;;;22.60;22.00;;;;;10.25;100.00;102920.81;2087971;28;45070;-57
2023/12/18 01:29:43;;;;;;;;;22.00;22.00;;;;;10.25;100.00;102928.78;2088084;28;45083;-56
2023/12/18 01:30:44;;;;;;;;;30.75;24.00;;;;;10.25;100.00;102927.00;2087013;28;45045;-56
2023/12/18 01:31:45;;;;;;;;;23.25;21.00;;;;;10.25;100.00;102928.78;2085566;28;44936;-54
2023/12/18 01:32:45;;;;;;;;;22.75;18.75;;;;;10.23;100.00;102923.44;2091193;28;45091;-54
2023/12/18 01:33:46;;;;;;;;;26.00;24.25;;;;;10.24;100.00;102934.94;2090666;28;45196;-53
2023/12/18 01:34:47;;;;;;;;;26.00;24.25;;;;;10.25;100.00;102926.13;2086793;28;45005;-53
2023/12/18 01:35:47;;;;;;;;;27.50;24.75;;;;;10.26;100.00;102930.56;2084969;28;44901;-54
2023/12/18 01:36:48;;;;;;;;;21.75;20.75;;;;;10.24;100.00;102930.53;2084547;28;45366;-54
2023/12/18 01:37:48;;;;;;;;;22.25;21.25;;;;;10.25;100.00;102931.44;2085994;28;45382;-53
2023/12/18 01:38:48;;;;;;;;;22.00;22.00;;;;;10.24;100.00;102930.53;2087828;28;44894;-55
2023/12/18 01:39:49;;;;;;;;;21.75;21.75;;;;;10.27;100.00;102935.88;2087740;28;44901;-54
2023/12/18 01:40:50;;;;;;;;;18.25;17.00;;;;;10.25;100.00;102931.44;2083404;28;45235;-54
2023/12/18 01:41:50;;;;;;;;;23.00;20.75;;;;;10.22;100.00;102934.03;2087507;28;44733;-55
2023/12/18 01:42:51;;;;;;;;;24.50;23.00;;;;;10.21;100.00;102929.56;2086709;28;45240;-55
2023/12/18 01:43:51;;;;;;;;;24.00;21.50;;;;;10.24;100.00;102932.28;2086930;28;44953;-53
2023/12/18 01:44:52;;;;;;;;;22.50;20.50;;;;;10.25;100.00;102932.31;2088521;28;44864;-56
2023/12/18 01:45:59;;;;;;;;;24.25;19.50;;;;;10.27;100.00;102935.00;2085958;28;44892;-55
2023/12/18 01:47:00;;;;;;;;;21.20;20.80;;;;;10.27;100.00;102938.53;2085823;28;44957;-53
2023/12/18 01:48:01;;;;;;;;;21.60;19.20;;;;;10.21;100.00;102941.09;2087601;28;44928;-54
2023/12/18 01:49:01;;;;;;;;;23.50;20.00;;;;;10.19;100.00;102936.63;2085562;28;45007;-55
2023/12/18 01:50:02;;;;;;;;;22.25;22.25;;;;;10.17;100.00;102935.72;2087746;28;44831;-55
2023/12/18 01:51:04;;;;;;;;;22.60;20.20;;;;;10.19;100.00;102937.50;2087771;28;44981;-57
2023/12/18 01:52:05;;;;;;;;;19.40;19.40;;;;;10.19;100.00;102933.97;2087926;28;44904;-53
2023/12/18 01:53:05;;;;;;;;;20.80;20.00;;;;;10.19;100.00;102937.50;2085085;28;45049;-55
2023/12/18 01:54:07;;;;;;;;;23.75;21.50;;;;;10.20;100.00;102944.59;2087040;28;44791;-57
2023/12/18 01:55:09;;;;;;;;;21.80;19.00;;;;;10.20;100.00;102941.06;2087554;28;44993;-52
2023/12/18 01:56:13;;;;;;;;;18.40;17.00;;;;;10.19;100.00;102940.16;2088277;28;44838;-56
2023/12/18 01:57:16;;;;;;;;;20.80;19.80;;;;;10.18;100.00;102930.41;2085650;28;44885;-55
2023/12/18 01:58:18;;;;;;;;;23.00;23.00;;;;;10.19;100.00;102929.56;2085533;28;44912;-52
2023/12/18 01:59:20;;;;;;;;;23.00;22.00;;;;;10.19;100.00;102929.56;2088458;28;44840;-52
2023/12/18 02:00:21;;;;;;;;;27.40;23.80;;;;;10.19;100.00;102923.34;2086274;28;45139;-54
2023/12/18 02:01:22;;;;;;;;;23.60;22.40;;;;;10.18;100.00;102925.13;2087530;28;44953;-51
2023/12/18 02:02:23;;;;;;;;;22.75;22.25;;;;;10.21;100.00;102926.91;2087174;28;44832;-55
2023/12/18 02:03:23;;;;;;;;;28.50;22.25;;;;;10.20;100.00;102928.69;2086912;28;44969;-55
2023/12/18 02:04:25;;;;;;;;;20.50;19.75;;;;;10.20;100.00;102926.03;2087649;28;44894;-50
2023/12/18 02:05:26;;;;;;;;;24.20;23.00;;;;;10.22;100.00;102929.63;2086719;28;45434;-54
2023/12/18 02:06:27;;;;;;;;;20.50;20.50;;;;;10.21;100.00;102937.53;2088237;28;44875;-55
2023/12/18 02:07:28;;;;;;;;;19.25;18.75;;;;;10.22;100.00;102934.03;2087812;28;44996;-53
2023/12/18 02:08:32;;;;;;;;;22.00;19.40;;;;;10.20;100.00;102938.41;2087190;28;44926;-55
2023/12/18 02:09:34;;;;;;;;;25.20;24.40;;;;;10.21;100.00;102935.81;2085171;28;44811;-50
2023/12/18 02:10:35;;;;;;;;;21.20;20.60;;;;;10.22;100.00;102934.94;2086511;28;45020;-52
2023/12/18 02:11:36;;;;;;;;;23.75;22.50;;;;;10.23;100.00;102943.78;2085027;28;45136;-54
2023/12/18 02:12:37;;;;;;;;;20.00;19.80;;;;;10.22;100.00;102936.69;2082147;28;44977;-53
2023/12/18 02:13:41;;;;;;;;;21.00;20.00;;;;;10.25;100.00;102940.28;2086211;28;44924;-54
2023/12/18 02:14:42;;;;;;;;;24.40;22.80;;;;;10.25;100.00;102940.28;2093788;28;44952;-56
2023/12/18 02:15:43;;;;;;;;;21.00;20.75;;;;;10.24;100.00;102940.25;2094009;28;45620;-55
2023/12/18 02:16:44;;;;;;;;;23.25;20.75;;;;;10.24;100.00;102943.81;2085208;28;45059;-56
2023/12/18 02:17:44;;;;;;;;;20.75;16.50;;;;;10.24;100.00;102942.91;2080532;28;44898;-53
2023/12/18 02:18:46;;;;;;;;;22.25;19.50;;;;;10.25;100.00;102947.34;2088329;28;44959;-53
2023/12/18 02:19:46;;;;;;;;;21.80;18.80;;;;;10.25;100.00;102945.59;2087452;28;44719;-53
2023/12/18 02:20:47;;;;;;;;;20.75;20.75;;;;;10.22;100.00;102942.00;2087273;28;44843;-54
2023/12/18 02:21:48;;;;;;;;;20.25;18.00;;;;;10.24;100.00;102943.81;2087384;28;45181;-55
2023/12/18 02:22:48;;;;;;;;;21.50;20.25;;;;;10.24;100.00;102941.16;2087447;28;44945;-53
2023/12/18 02:23:50;;;;;;;;;17.00;17.00;;;;;10.26;100.00;102944.72;2088350;28;44915;-54
2023/12/18 02:24:51;;;;;;;;;21.00;21.00;;;;;10.24;100.00;102941.16;2088638;28;44940;-52
2023/12/18 02:25:51;;;;;;;;;22.25;20.00;;;;;10.23;100.00;102943.78;2077549;28;45172;-53
2023/12/18 02:26:53;;;;;;;;;21.75;21.75;;;;;10.22;100.00;102939.34;2077873;28;44990;-52
2023/12/18 02:27:53;;;;;;;;;18.40;17.80;;;;;10.23;100.00;102941.13;2087624;28;44946;-56
2023/12/18 02:28:54;;;;;;;;;20.00;18.75;;;;;10.24;100.00;102940.25;2082022;28;45091;-53
2023/12/18 02:29:54;;;;;;;;;20.75;19.00;;;;;10.23;100.00;102941.13;2087344;28;44857;-54
2023/12/18 02:30:55;;;;;;;;;19.00;19.00;;;;;10.22;100.00;102931.38;2088490;28;45153;-54
2023/12/18 02:31:57;;;;;;;;;20.75;18.75;;;;;10.21;100.00;102938.47;2087701;28;44938;-57
2023/12/18 02:32:58;;;;;;;;;21.20;19.80;;;;;10.24;100.00;102935.84;2088594;28;44856;-53
2023/12/18 02:33:58;;;;;;;;;20.75;19.25;;;;;10.24;100.00;102934.94;2085253;28;44853;-55
2023/12/18 02:34:59;;;;;;;;;19.75;18.50;;;;;10.18;100.00;102927.78;2089005;28;44882;-55
2023/12/18 02:36:01;;;;;;;;;23.00;21.25;;;;;10.17;100.00;102931.28;2089274;28;44849;-55
2023/12/18 02:37:02;;;;;;;;;20.80;19.80;;;;;10.15;100.00;102925.03;2086108;28;44971;-52
2023/12/18 02:38:02;;;;;;;;;23.00;20.00;;;;;10.15;100.00;102938.31;2094268;28;44862;-55
2023/12/18 02:39:03;;;;;;;;;20.75;18.00;;;;;10.16;100.00;102936.53;2084275;28;45005;-52
2023/12/18 02:40:04;;;;;;;;;19.50;18.75;;;;;10.14;100.00;102938.28;2089265;28;44942;-54
2023/12/18 02:41:05;;;;;;;;;20.60;19.00;;;;;10.14;100.00;102936.53;2088525;28;44875;-55
2023/12/18 02:42:06;;;;;;;;;20.00;18.50;;;;;10.13;100.00;102933.84;2088596;28;44993;-54
2023/12/18 02:43:07;;;;;;;;;19.75;19.50;;;;;10.13;100.00;102933.84;2087448;28;44851;-55
2023/12/18 02:44:07;;;;;;;;;22.40;19.40;;;;;10.12;100.00;102935.63;2086479;28;44956;-52
2023/12/18 02:45:08;;;;;;;;;18.75;18.75;;;;;10.06;100.00;102938.19;2085272;28;44846;-53
2023/12/18 02:46:09;;;;;;;;;24.00;23.20;;;;;10.01;100.00;102935.44;2088865;28;45131;-54
2023/12/18 02:47:09;;;;;;;;;15.25;14.75;;;;;10.00;100.00;102935.41;2088845;28;44957;-54
2023/12/18 02:48:10;;;;;;;;;20.25;20.25;;;;;9.99;100.00;102931.88;2087844;28;45063;-53
2023/12/18 02:49:11;;;;;;;;;20.00;19.00;;;;;9.98;100.00;102932.75;2089148;28;44992;-53
2023/12/18 02:50:12;;;;;;;;;19.75;19.00;;;;;10.00;100.00;102930.13;2087398;28;44826;-55
2023/12/18 02:51:13;;;;;;;;;24.40;21.40;;;;;10.00;100.00;102933.66;2086397;28;44818;-52
2023/12/18 02:52:13;;;;;;;;;19.75;19.75;;;;;9.99;100.00;102929.22;2083506;28;44996;-56
2023/12/18 02:53:15;;;;;;;;;22.00;21.75;;;;;9.99;100.00;102931.88;2088141;28;44986;-54
2023/12/18 02:54:15;;;;;;;;;13.00;11.00;;;;;10.00;100.00;102935.41;2088847;28;44964;-53
2023/12/18 02:55:16;;;;;;;;;19.75;19.75;;;;;10.00;100.00;102927.47;2088458;28;44906;-55
2023/12/18 02:56:17;;;;;;;;;26.25;20.75;;;;;9.99;100.00;102933.63;2088791;28;44897;-53
2023/12/18 02:57:17;;;;;;;;;19.50;19.00;;;;;10.01;100.00;102932.78;2088823;28;44997;-55
2023/12/18 02:58:21;;;;;;;;;20.00;19.00;;;;;10.03;100.00;102935.47;2088489;28;44826;-52
2023/12/18 02:59:22;;;;;;;;;19.80;19.00;;;;;10.05;100.00;102931.09;2087708;28;44901;-54
2023/12/18 03:00:22;;;;;;;;;19.67;17.67;;;;;10.04;100.00;102934.63;2088820;28;44886;-55
2023/12/18 03:01:23;;;;;;;;;25.00;21.00;;;;;10.09;100.00;102924.97;2087455;28;44958;-54
2023/12/18 03:02:24;;;;;;;;;20.25;19.75;;;;;10.10;100.00;102925.84;2086494;28;44838;-54
2023/12/18 03:03:24;;;;;;;;;22.25;22.25;;;;;10.04;100.00;102921.38;2070745;28;44794;-54
2023/12/18 03:04:25;;;;;;;;;19.67;18.33;;;;;10.02;100.00;102928.38;2071389;28;44897;-53
2023/12/18 03:05:26;;;;;;;;;19.50;17.00;;;;;10.00;100.00;102927.47;2088732;28;44777;-53
2023/12/18 03:06:26;;;;;;;;;16.67;16.67;;;;;9.98;100.00;102924.78;2088646;28;44985;-52
2023/12/18 03:07:27;;;;;;;;;21.00;21.00;;;;;9.98;100.00;102922.13;2088139;28;44894;-54
2023/12/18 03:08:28;;;;;;;;;22.25;21.00;;;;;9.97;100.00;102925.66;2085078;28;44818;-53
2023/12/18 03:09:28;;;;;;;;;19.50;18.75;;;;;9.98;100.00;102922.13;2089036;28;44991;-54
2023/12/18 03:10:29;;;;;;;;;22.00;19.75;;;;;9.99;100.00;102925.69;2088948;28;44858;-53
2023/12/18 03:11:30;;;;;;;;;24.80;22.80;;;;;9.99;100.00;102923.91;2088583;28;44922;-54
2023/12/18 03:12:30;;;;;;;;;22.25;20.75;;;;;10.01;100.00;102926.59;2085875;28;44917;-52
2023/12/18 03:13:31;;;;;;;;;22.00;21.00;;;;;10.01;100.00;102922.19;2087142;28;44937;-55
2023/12/18 03:14:32;;;;;;;;;20.75;18.00;;;;;10.06;100.00;102924.94;2087762;28;46243;-53
2023/12/18 03:15:33;;;;;;;;;24.25;22.75;;;;;10.08;100.00;102923.19;2089185;28;44841;-54
2023/12/18 03:16:33;;;;;;;;;20.00;18.50;;;;;10.05;100.00;102925.78;2088685;28;44962;-54
2023/12/18 03:17:34;;;;;;;;;17.00;17.00;;;;;10.13;100.00;102931.19;2087070;28;44872;-55
2023/12/18 03:18:35;;;;;;;;;18.75;17.75;;;;;10.12;100.00;102927.66;2088845;28;44834;-53
2023/12/18 03:19:35;;;;;;;;;22.25;19.50;;;;;10.12;100.00;102930.31;2087391;28;44812;-53
2023/12/18 03:20:36;;;;;;;;;17.00;17.00;;;;;10.11;100.00;102924.97;2081014;28;45050;-55
2023/12/18 03:21:36;;;;;;;;;24.50;22.00;;;;;10.13;100.00;102923.25;2087683;28;45057;-53
2023/12/18 03:22:37;;;;;;;;;19.00;17.25;;;;;10.12;100.00;102929.41;2088695;28;44883;-56
2023/12/18 03:23:38;;;;;;;;;22.67;19.67;;;;;10.07;100.00;102928.47;2088447;28;44849;-54
2023/12/18 03:24:42;;;;;;;;;16.50;15.50;;;;;10.07;100.00;102931.13;2087717;28;45054;-54
2023/12/18 03:25:43;;;;;;;;;25.60;22.00;;;;;10.07;100.00;102929.34;2087897;28;45037;-55
2023/12/18 03:26:43;;;;;;;;;21.75;20.50;;;;;10.08;100.00;102922.28;2089051;28;45032;-54
2023/12/18 03:27:44;;;;;;;;;21.50;18.75;;;;;10.09;100.00;102924.97;2087838;28;44984;-52
2023/12/18 03:28:45;;;;;;;;;19.00;18.67;;;;;10.10;100.00;102928.50;2088752;28;44794;-55
2023/12/18 03:29:45;;;;;;;;;17.00;15.50;;;;;10.16;100.00;102929.47;2088796;28;44924;-54
2023/12/18 03:30:46;;;;;;;;;21.75;21.50;;;;;10.18;100.00;102924.22;2087827;28;44940;-53
2023/12/18 03:31:47;;;;;;;;;20.25;16.50;;;;;10.17;100.00;102928.63;2088602;28;44895;-53
2023/12/18 03:32:47;;;;;;;;;23.33;21.67;;;;;10.18;100.00;102930.41;2086990;28;44980;-53
2023/12/18 03:33:48;;;;;;;;;21.00;21.00;;;;;10.15;100.00;102927.69;2088259;28;44811;-55
2023/12/18 03:34:49;;;;;;;;;22.25;21.25;;;;;10.14;100.00;102925.91;2088460;28;44862;-54
2023/12/18 03:35:50;;;;;;;;;21.20;20.60;;;;;10.14;100.00;102930.31;2088098;28;45198;-55
2023/12/18 03:36:50;;;;;;;;;21.50;21.25;;;;;10.14;100.00;102922.38;2088607;28;44834;-53
2023/12/18 03:37:51;;;;;;;;;19.00;18.00;;;;;10.15;100.00;102927.69;2089010;28;44968;-55
2023/12/18 03:38:52;;;;;;;;;19.67;18.00;;;;;10.13;100.00;102924.13;2088590;28;44811;-54
2023/12/18 03:39:52;;;;;;;;;21.50;18.50;;;;;10.14;100.00;102920.59;2088440;28;44857;-55
2023/12/18 03:40:53;;;;;;;;;19.00;16.50;;;;;10.15;100.00;102918.84;2088499;28;45012;-54
2023/12/18 03:41:53;;;;;;;;;21.75;19.50;;;;;10.14;100.00;102917.06;2088575;28;44920;-53
2023/12/18 03:42:54;;;;;;;;;18.00;18.00;;;;;10.15;100.00;102910.88;2088604;28;44912;-53
2023/12/18 03:43:54;;;;;;;;;19.50;19.50;;;;;10.16;100.00;102910.91;2088025;28;44894;-55
2023/12/18 03:44:55;;;;;;;;;23.25;18.25;;;;;10.16;100.00;102912.66;2086293;28;45135;-52
2023/12/18 03:45:56;;;;;;;;;19.33;17.00;;;;;10.15;100.00;102909.13;2088577;28;44957;-54
2023/12/18 03:46:57;;;;;;;;;18.33;18.00;;;;;10.15;100.00;102914.44;2084642;28;44932;-54
2023/12/18 03:47:58;;;;;;;;;18.00;16.20;;;;;10.15;100.00;102916.19;2088470;28;44830;-54
2023/12/18 03:48:58;;;;;;;;;20.75;20.75;;;;;10.16;100.00;102912.66;2085188;28;45357;-51
2023/12/18 03:49:59;;;;;;;;;18.75;18.75;;;;;10.18;100.00;102911.84;2087057;28;44966;-54
2023/12/18 03:51:00;;;;;;;;;19.25;19.00;;;;;10.20;100.00;102922.47;2088291;28;44952;-56
2023/12/18 03:52:01;;;;;;;;;24.75;21.00;;;;;10.19;100.00;102923.34;2085220;28;45170;-55
2023/12/18 03:53:01;;;;;;;;;17.67;16.33;;;;;10.15;100.00;102922.38;2088205;28;44986;-52
2023/12/18 03:54:02;;;;;;;;;19.33;18.33;;;;;10.15;100.00;102927.69;2087184;28;44945;-55
2023/12/18 03:55:03;;;;;;;;;17.00;15.33;;;;;10.15;100.00;102924.16;2084784;28;45098;-55
2023/12/18 03:56:04;;;;;;;;;20.60;19.20;;;;;10.14;100.00;102917.97;2088613;28;44901;-52
2023/12/18 03:57:05;;;;;;;;;21.25;19.50;;;;;10.16;100.00;102924.16;2088481;28;44940;-55
2023/12/18 03:58:06;;;;;;;;;18.75;18.75;;;;;10.22;100.00;102926.97;2089100;28;44934;-54
2023/12/18 03:59:06;;;;;;;;;22.25;18.50;;;;;10.22;100.00;102931.38;2088583;28;44805;-56
2023/12/18 04:00:08;;;;;;;;;17.33;15.33;;;;;10.24;100.00;102922.56;2085581;28;45054;-52
2023/12/18 04:01:08;;;;;;;;;17.50;17.25;;;;;10.25;100.00;102926.13;2084872;28;44843;-56
2023/12/18 04:02:09;;;;;;;;;19.67;17.67;;;;;10.21;100.00;102927.84;2088271;28;45032;-55
2023/12/18 04:03:10;;;;;;;;;17.00;17.00;;;;;10.21;100.00;102926.91;2087394;28;46199;-55
2023/12/18 04:04:12;;;;;;;;;18.75;18.75;;;;;10.16;100.00;102931.25;2088085;28;44889;-55
2023/12/18 04:05:13;;;;;;;;;19.50;18.50;;;;;10.14;100.00;102933.88;2085598;28;45096;-54
2023/12/18 04:06:14;;;;;;;;;19.00;19.00;;;;;10.14;100.00;102932.97;2089150;28;44865;-54
2023/12/18 04:07:14;;;;;;;;;18.00;18.00;;;;;10.12;100.00;102932.97;2080031;28;44996;-55
2023/12/18 04:08:15;;;;;;;;;21.75;18.00;;;;;10.11;100.00;102927.63;2088000;28;45087;-54
2023/12/18 04:09:16;;;;;;;;;15.00;13.00;;;;;10.10;100.00;102928.50;2087944;28;44941;-56
2023/12/18 04:10:17;;;;;;;;;19.75;16.75;;;;;10.08;100.00;102928.50;2078859;28;45030;-57
2023/12/18 04:11:18;;;;;;;;;16.25;14.25;;;;;10.07;100.00;102918.75;2079032;28;44869;-54
2023/12/18 04:12:19;;;;;;;;;22.00;18.00;;;;;10.06;100.00;102924.03;2087847;28;44902;-53
2023/12/18 04:13:20;;;;;;;;;19.00;15.75;;;;;10.06;100.00;102932.00;2087764;28;45013;-54
2023/12/18 04:14:21;;;;;;;;;16.00;15.75;;;;;10.06;100.00;102927.56;2094027;28;45564;-55
2023/12/18 04:15:22;;;;;;;;;19.50;19.50;;;;;10.05;100.00;102928.44;2095901;28;44866;-55
2023/12/18 04:16:22;;;;;;;;;15.67;15.67;;;;;10.04;100.00;102924.00;2087478;28;44877;-54
2023/12/18 04:17:23;;;;;;;;;22.00;17.25;;;;;10.05;100.00;102925.78;2088329;28;44763;-52
2023/12/18 04:18:23;;;;;;;;;15.67;15.33;;;;;10.02;100.00;102925.72;2085786;28;45016;-55
2023/12/18 04:19:24;;;;;;;;;19.25;19.25;;;;;10.00;100.00;102924.81;2085336;28;44988;-53
2023/12/18 04:20:25;;;;;;;;;21.75;20.25;;;;;10.00;100.00;102922.16;2084783;28;45209;-52
2023/12/18 04:21:25;;;;;;;;;20.75;20.75;;;;;10.00;100.00;102917.75;2085087;28;45107;-54
2023/12/18 04:22:26;;;;;;;;;20.25;18.00;;;;;9.99;100.00;102913.31;2088623;28;44925;-53
2023/12/18 04:23:27;;;;;;;;;18.67;18.67;;;;;10.01;100.00;102921.28;2088195;28;44898;-51
2023/12/18 04:24:27;;;;;;;;;22.00;21.75;;;;;9.98;100.00;102919.47;2087442;28;45288;-53
2023/12/18 04:25:28;;;;;;;;;20.50;20.00;;;;;9.98;100.00;102927.44;2088385;28;44834;-52
2023/12/18 04:26:28;;;;;;;;;23.25;20.00;;;;;9.97;100.00;102927.41;2088038;28;45032;-53
2023/12/18 04:27:29;;;;;;;;;15.50;15.50;;;;;9.97;100.00;102930.06;2088299;28;45580;-52
2023/12/18 04:28:29;;;;;;;;;21.25;21.00;;;;;9.98;100.00;102921.25;2088716;28;44888;-53
2023/12/18 04:29:30;;;;;;;;;20.50;19.75;;;;;9.98;100.00;102922.13;2095890;28;44862;-55
2023/12/18 04:30:30;;;;;;;;;19.50;18.75;;;;;9.99;100.00;102920.38;2087061;28;44925;-53
2023/12/18 04:31:31;;;;;;;;;20.50;19.00;;;;;10.00;100.00;102922.16;2079456;28;45320;-54
2023/12/18 04:32:32;;;;;;;;;17.80;17.80;;;;;9.99;100.00;102921.25;2087742;28;45073;-54
2023/12/18 04:33:33;;;;;;;;;12.75;12.75;;;;;9.99;100.00;102928.34;2087775;28;44928;-56